createdAt,value
2018-08-11T00:03:54.696Z,15.30
2018-08-11T00:07:57.859Z,15.30
2018-08-11T00:12:00.948Z,15.30
2018-08-11T00:16:04.152Z,15.30
2018-08-11T00:20:09.394Z,15.30
2018-08-11T00:24:12.710Z,15.30
2018-08-11T00:28:15.799Z,15.30
2018-08-11T00:32:18.941Z,15.30
2018-08-11T00:36:22.038Z,15.30
2018-08-11T00:40:25.253Z,15.30
2018-08-11T00:44:28.333Z,15.30
2018-08-11T00:48:31.472Z,15.30
2018-08-11T00:52:34.559Z,15.20
2018-08-11T00:56:37.764Z,15.20
2018-08-11T01:00:40.860Z,15.20
2018-08-11T01:04:44.089Z,15.10
2018-08-11T01:08:47.171Z,15.10
2018-08-11T01:12:50.328Z,15.00
2018-08-11T01:16:53.407Z,15.00
2018-08-11T01:20:56.643Z,14.90
2018-08-11T01:24:59.844Z,14.90
2018-08-11T01:29:02.979Z,14.80
2018-08-11T01:33:06.192Z,14.70
2018-08-11T01:37:09.303Z,14.50
2018-08-11T01:41:12.402Z,14.40
2018-08-11T01:45:16.176Z,14.40
2018-08-11T01:49:19.252Z,14.30
2018-08-11T01:53:22.384Z,14.20
2018-08-11T01:57:25.483Z,14.20
2018-08-11T02:01:28.621Z,14.20
2018-08-11T02:05:31.724Z,14.20
2018-08-11T02:09:34.891Z,14.30
2018-08-11T02:13:37.980Z,14.20
2018-08-11T02:17:41.203Z,14.20
2018-08-11T02:21:44.284Z,14.20
2018-08-11T02:25:47.648Z,14.30
2018-08-11T02:29:50.727Z,14.30
2018-08-11T02:33:54.053Z,14.20
2018-08-11T02:37:57.135Z,14.20
2018-08-11T02:42:00.267Z,14.10
2018-08-11T02:46:03.352Z,14.10
2018-08-11T02:50:08.159Z,14.10
2018-08-11T02:54:11.240Z,14.00
2018-08-11T02:58:14.372Z,14.00
2018-08-11T03:02:17.512Z,14.00
2018-08-11T03:06:20.679Z,14.00
2018-08-11T03:10:23.783Z,14.00
2018-08-11T03:14:26.891Z,14.00
2018-08-11T03:18:30.085Z,13.90
2018-08-11T03:22:33.300Z,13.90
2018-08-11T03:26:36.744Z,13.90
2018-08-11T03:30:39.944Z,13.90
2018-08-11T03:34:43.024Z,13.80
2018-08-11T03:38:46.259Z,13.80
2018-08-11T03:42:49.336Z,13.80
2018-08-11T03:46:52.547Z,13.70
2018-08-11T03:50:55.616Z,13.70
2018-08-11T03:54:59.580Z,13.70
2018-08-11T03:59:02.669Z,13.70
2018-08-11T04:03:05.799Z,13.70
2018-08-11T04:07:08.881Z,13.70
2018-08-11T04:11:11.988Z,13.70
2018-08-11T04:15:15.060Z,13.70
2018-08-11T04:19:18.279Z,13.70
2018-08-11T04:23:21.360Z,13.70
2018-08-11T04:27:24.659Z,13.70
2018-08-11T04:31:27.756Z,13.90
2018-08-11T04:35:30.904Z,14.10
2018-08-11T04:39:33.963Z,14.20
2018-08-11T04:43:37.097Z,14.30
2018-08-11T04:47:40.192Z,14.30
2018-08-11T04:51:43.400Z,14.30
2018-08-11T04:55:46.492Z,14.20
2018-08-11T04:59:49.701Z,14.20
2018-08-11T05:03:52.789Z,14.20
2018-08-11T05:07:56.000Z,14.20
2018-08-11T05:11:59.096Z,14.30
2018-08-11T05:16:02.312Z,14.40
2018-08-11T05:20:05.408Z,14.50
2018-08-11T05:24:08.900Z,14.60
2018-08-11T05:28:12.202Z,14.70
2018-08-11T05:32:15.315Z,14.80
2018-08-11T05:36:18.408Z,14.80
2018-08-11T05:40:21.527Z,14.80
2018-08-11T05:44:24.623Z,14.90
2018-08-11T05:48:27.789Z,15.00
2018-08-11T05:52:30.880Z,15.20
2018-08-11T05:56:34.105Z,15.40
2018-08-11T06:00:37.172Z,15.50
2018-08-11T06:04:40.312Z,15.50
2018-08-11T06:08:43.408Z,15.50
2018-08-11T06:12:46.523Z,15.60
2018-08-11T06:16:49.596Z,16.10
2018-08-11T06:20:52.792Z,17.80
2018-08-11T06:24:55.875Z,20.60
2018-08-11T06:28:59.111Z,23.30
2018-08-11T06:33:02.204Z,25.70
2018-08-11T06:37:05.943Z,27.10
2018-08-11T06:41:09.016Z,28.10
2018-08-11T06:45:12.500Z,28.70
2018-08-11T06:49:15.588Z,29.90
2018-08-11T06:53:18.816Z,29.30
2018-08-11T06:57:21.892Z,27.20
2018-08-11T07:01:25.013Z,26.00
2018-08-11T07:05:28.105Z,25.30
2018-08-11T07:09:31.299Z,25.30
2018-08-11T07:13:34.380Z,26.00
2018-08-11T07:17:37.483Z,26.00
2018-08-11T07:21:40.563Z,26.00
2018-08-11T07:25:43.684Z,25.30
2018-08-11T07:29:46.772Z,25.50
2018-08-11T07:33:49.928Z,26.00
2018-08-11T07:37:53.004Z,25.60
2018-08-11T07:41:56.232Z,25.30
2018-08-11T07:45:59.428Z,25.00
2018-08-11T07:50:02.636Z,25.00
2018-08-11T07:54:05.714Z,25.10
2018-08-11T07:58:08.829Z,25.10
2018-08-11T08:02:11.905Z,25.00
2018-08-11T08:06:15.115Z,24.40
2018-08-11T08:10:18.203Z,23.40
2018-08-11T08:14:21.416Z,22.70
2018-08-11T08:18:24.497Z,21.90
2018-08-11T08:22:27.618Z,21.20
2018-08-11T08:26:30.854Z,20.80
2018-08-11T08:30:33.928Z,20.50
2018-08-11T08:34:37.008Z,20.20
2018-08-11T08:38:40.111Z,20.10
2018-08-11T08:42:43.196Z,20.30
2018-08-11T08:46:46.907Z,20.50
2018-08-11T08:50:49.980Z,20.60
2018-08-11T08:54:53.097Z,20.60
2018-08-11T08:58:56.233Z,20.50
2018-08-11T09:02:59.438Z,20.50
2018-08-11T09:07:02.559Z,20.50
2018-08-11T09:11:06.051Z,20.50
2018-08-11T09:15:09.155Z,20.50
2018-08-11T09:19:12.391Z,20.50
2018-08-11T09:23:15.468Z,20.30
2018-08-11T09:27:25.432Z,20.20
2018-08-11T09:31:28.515Z,20.10
2018-08-11T09:35:31.711Z,20.20
2018-08-11T09:39:34.784Z,20.50
2018-08-11T09:43:37.992Z,20.70
2018-08-11T09:47:41.291Z,20.90
2018-08-11T09:51:44.499Z,21.10
2018-08-11T09:55:47.589Z,21.10
2018-08-11T09:59:50.776Z,21.00
2018-08-11T10:03:53.863Z,20.80
2018-08-11T10:07:56.988Z,20.60
2018-08-11T10:12:00.061Z,20.90
2018-08-11T10:16:03.198Z,21.50
2018-08-11T10:20:06.288Z,21.50
2018-08-11T10:24:09.430Z,21.50
2018-08-11T10:28:12.519Z,21.60
2018-08-11T10:32:15.648Z,21.80
2018-08-11T10:36:18.731Z,22.10
2018-08-11T10:40:21.942Z,21.80
2018-08-11T10:44:24.987Z,21.60
2018-08-11T10:48:28.296Z,21.40
2018-08-11T10:56:34.296Z,21.60
2018-08-11T11:00:37.376Z,21.60
2018-08-11T11:04:40.604Z,22.00
2018-08-11T11:08:43.868Z,22.00
2018-08-11T11:12:46.976Z,22.20
2018-08-11T11:16:50.342Z,22.30
2018-08-11T11:20:53.522Z,21.90
2018-08-11T11:24:56.616Z,21.90
2018-08-11T11:28:59.699Z,22.10
2018-08-11T11:33:02.915Z,22.20
2018-08-11T11:37:05.994Z,22.40
2018-08-11T11:41:09.136Z,22.70
2018-08-11T11:45:12.224Z,22.60
2018-08-11T11:49:15.423Z,22.50
2018-08-11T11:53:18.524Z,22.30
2018-08-11T11:57:21.684Z,22.50
2018-08-11T12:01:24.756Z,22.50
2018-08-11T12:05:27.959Z,22.00
2018-08-11T12:09:31.037Z,21.90
2018-08-11T12:13:34.169Z,22.00
2018-08-11T12:17:37.347Z,21.90
2018-08-11T12:21:40.472Z,22.00
2018-08-11T12:25:43.551Z,22.00
2018-08-11T12:29:46.683Z,22.10
2018-08-11T12:33:49.768Z,22.20
2018-08-11T12:37:52.926Z,22.20
2018-08-11T12:41:55.984Z,22.30
2018-08-11T12:45:59.222Z,22.10
2018-08-11T12:50:02.283Z,22.00
2018-08-11T12:54:05.455Z,21.70
2018-08-11T12:58:08.532Z,21.40
2018-08-11T13:02:11.734Z,21.50
2018-08-11T13:06:14.804Z,21.70
2018-08-11T13:10:18.024Z,21.70
2018-08-11T13:14:21.111Z,21.90
2018-08-11T13:18:24.364Z,21.90
2018-08-11T13:22:27.452Z,21.80
2018-08-11T13:26:30.592Z,21.60
2018-08-11T13:30:33.672Z,21.50
2018-08-11T13:34:36.901Z,21.40
2018-08-11T13:38:40.188Z,21.30
2018-08-11T13:42:43.304Z,21.50
2018-08-11T13:46:46.376Z,21.60
2018-08-11T13:50:49.591Z,21.50
2018-08-11T13:54:52.671Z,21.30
2018-08-11T13:58:55.781Z,21.40
2018-08-11T14:02:58.859Z,21.50
2018-08-11T14:07:02.004Z,21.60
2018-08-11T14:11:05.656Z,21.40
2018-08-11T14:15:09.111Z,21.30
2018-08-11T14:19:12.393Z,21.40
2018-08-11T14:23:15.620Z,21.40
2018-08-11T14:27:18.768Z,21.50
2018-08-11T14:31:21.887Z,21.60
2018-08-11T14:35:24.961Z,21.80
2018-08-11T14:39:28.164Z,22.10
2018-08-11T14:43:31.234Z,22.00
2018-08-11T14:47:34.348Z,21.70
2018-08-11T14:51:37.428Z,21.40
2018-08-11T14:55:40.556Z,21.20
2018-08-11T14:59:43.639Z,21.30
2018-08-11T15:03:46.769Z,21.50
2018-08-11T15:07:49.871Z,21.80
2018-08-11T15:11:53.089Z,21.90
2018-08-11T15:15:56.246Z,22.10
2018-08-11T15:19:59.509Z,22.30
2018-08-11T15:24:02.589Z,22.30
2018-08-11T15:28:05.796Z,22.10
2018-08-11T15:32:09.120Z,21.80
2018-08-11T15:36:12.269Z,21.60
2018-08-11T15:40:15.339Z,21.50
2018-08-11T15:44:18.460Z,21.30
2018-08-11T15:48:21.555Z,21.20
2018-08-11T15:52:24.663Z,21.10
2018-08-11T15:56:27.740Z,21.20
2018-08-11T16:00:30.948Z,21.20
2018-08-11T16:04:34.024Z,21.40
2018-08-11T16:08:37.137Z,21.50
2018-08-11T16:12:40.225Z,21.60
2018-08-11T16:16:43.414Z,21.50
2018-08-11T16:20:46.636Z,21.40
2018-08-11T16:24:49.763Z,21.30
2018-08-11T16:28:52.835Z,21.20
2018-08-11T16:32:55.939Z,21.00
2018-08-11T16:36:58.996Z,20.90
2018-08-11T16:41:02.135Z,20.80
2018-08-11T16:45:05.304Z,20.80
2018-08-11T16:49:08.423Z,20.80
2018-08-11T16:53:11.597Z,20.70
2018-08-11T16:57:14.756Z,20.70
2018-08-11T17:01:17.847Z,20.60
2018-08-11T17:05:20.972Z,20.60
2018-08-11T17:09:24.066Z,20.60
2018-08-11T17:13:27.197Z,20.60
2018-08-11T17:17:30.280Z,20.60
2018-08-11T17:21:33.627Z,20.60
2018-08-11T17:25:36.710Z,20.60
2018-08-11T17:29:39.944Z,20.60
2018-08-11T17:33:43.028Z,20.60
2018-08-11T17:37:46.231Z,20.50
2018-08-11T17:41:49.308Z,20.30
2018-08-11T17:49:55.308Z,19.90
2018-08-11T17:53:58.413Z,19.70
2018-08-11T17:58:01.483Z,19.60
2018-08-11T18:02:04.692Z,19.50
2018-08-11T18:06:07.783Z,19.30
2018-08-11T18:10:10.936Z,19.20
2018-08-11T18:14:14.017Z,19.10
2018-08-11T18:18:17.207Z,19.00
2018-08-11T18:22:20.497Z,18.90
2018-08-11T18:26:23.620Z,18.80
2018-08-11T18:30:26.700Z,18.70
2018-08-11T18:34:29.821Z,18.60
2018-08-11T18:38:32.911Z,18.50
2018-08-11T18:42:36.125Z,18.40
2018-08-11T18:46:39.197Z,18.40
2018-08-11T18:50:42.437Z,18.20
2018-08-11T18:54:45.529Z,18.10
2018-08-11T18:58:48.663Z,17.90
2018-08-11T19:02:51.741Z,17.90
2018-08-11T19:06:54.851Z,17.80
2018-08-11T19:10:57.968Z,17.70
2018-08-11T19:15:01.115Z,17.60
2018-08-11T19:19:04.256Z,17.50
2018-08-11T19:23:07.555Z,17.40
2018-08-11T19:27:10.629Z,17.30
2018-08-11T19:31:13.764Z,17.20
2018-08-11T19:35:16.848Z,17.10
2018-08-11T19:39:19.988Z,17.10
2018-08-11T19:43:23.063Z,17.00
2018-08-11T19:47:26.387Z,16.90
2018-08-11T19:51:29.763Z,16.80
2018-08-11T19:55:32.908Z,16.70
2018-08-11T19:59:36.021Z,16.60
2018-08-11T20:03:39.219Z,16.50
2018-08-11T20:07:42.451Z,16.40
2018-08-11T20:11:45.847Z,16.30
2018-08-11T20:15:48.947Z,16.30
2018-08-11T20:19:52.239Z,16.10
2018-08-11T20:23:55.460Z,16.00
2018-08-11T20:27:58.648Z,15.90
2018-08-11T20:32:01.739Z,15.90
2018-08-11T20:36:04.933Z,15.80
2018-08-11T20:40:08.006Z,15.70
2018-08-11T20:44:11.244Z,15.60
2018-08-11T20:48:14.340Z,15.50
2018-08-11T20:52:17.482Z,15.40
2018-08-11T20:56:20.552Z,15.30
2018-08-11T21:00:23.720Z,15.20
2018-08-11T21:04:26.768Z,15.10
2018-08-11T21:08:30.747Z,15.00
2018-08-11T21:12:33.834Z,14.90
2018-08-11T21:16:36.953Z,14.80
2018-08-11T21:20:40.029Z,14.80
2018-08-11T21:24:43.355Z,14.70
2018-08-11T21:28:46.440Z,14.70
2018-08-11T21:32:49.652Z,14.60
2018-08-11T21:36:52.749Z,14.60
2018-08-11T21:40:55.948Z,14.50
2018-08-11T21:44:59.027Z,14.50
2018-08-11T21:49:02.284Z,14.40
2018-08-11T21:53:05.359Z,14.40
2018-08-11T21:57:08.539Z,14.40
2018-08-11T22:01:14.306Z,14.40
2018-08-11T22:05:17.458Z,14.30
2018-08-11T22:09:20.548Z,14.30
2018-08-11T22:13:23.691Z,14.30
2018-08-11T22:17:26.784Z,14.20
2018-08-11T22:21:30.016Z,14.20
2018-08-11T22:25:33.227Z,14.20
2018-08-11T22:29:36.444Z,14.20
2018-08-11T22:33:39.519Z,14.10
2018-08-11T22:37:42.719Z,14.10
2018-08-11T22:41:45.805Z,14.00
2018-08-11T22:45:48.924Z,13.90
2018-08-11T22:49:52.124Z,13.90
2018-08-11T22:53:55.240Z,13.90
2018-08-11T22:57:58.315Z,13.80
2018-08-11T23:02:01.511Z,13.90
2018-08-11T23:06:04.587Z,13.90
2018-08-11T23:10:09.755Z,13.90
2018-08-11T23:14:12.838Z,13.90
2018-08-11T23:18:15.947Z,13.90
2018-08-11T23:22:19.027Z,13.90
2018-08-11T23:26:22.607Z,13.90
2018-08-11T23:30:25.700Z,13.90
2018-08-11T23:34:28.816Z,13.90
2018-08-11T23:38:31.891Z,13.80
2018-08-11T23:42:35.362Z,13.80
2018-08-11T23:46:38.436Z,13.80
2018-08-11T23:50:41.635Z,13.80
2018-08-11T23:54:44.727Z,13.80
2018-08-11T23:58:47.848Z,13.80
